Time;durP1;ratioP1;P1;durP2;ratioP2;P2;SDS_P1;SDS_P2;PMS_P1;PMS_P2;Temp;Humidity;BMP_temperature;BMP_pressure;BME280_temperature;BME280_humidity;BME280_pressure;Samples;Min_cycle;Max_cycle;Signal;HPM_P1;HPM_P2
2022/04/12 00:00:58;;;;;;;13.53;11.10;;;;;;;;;;5092091;28;20729;-61
2022/04/12 00:03:24;;;;;;;16.40;11.47;;;;;;;;;;5106706;28;20126;-61
2022/04/12 00:05:51;;;;;;;16.60;11.27;;;;;;;;;;5094913;28;20131;-61
2022/04/12 00:08:17;;;;;;;15.27;11.23;;;;;;;;;;5099792;28;20414;-61
2022/04/12 00:10:43;;;;;;;16.60;10.43;;;;;;;;;;5098386;28;20039;-61
2022/04/12 00:13:09;;;;;;;15.30;11.40;;;;;;;;;;5095059;28;20122;-61
2022/04/12 00:15:36;;;;;;;29.30;13.33;;;;;;;;;;5094275;28;20484;-61
2022/04/12 00:20:46;;;;;;;16.57;12.77;;;;;;;;;;5095971;28;20489;-61
2022/04/12 00:23:14;;;;;;;20.57;12.10;;;;;;;;;;5099113;28;20043;-61
2022/04/12 00:25:42;;;;;;;16.50;11.97;;;;;;;;;;5097693;28;20040;-61
2022/04/12 00:28:08;;;;;;;16.57;11.50;;;;;;;;;;5097478;28;20119;-62
2022/04/12 00:30:35;;;;;;;17.33;11.70;;;;;;;;;;5097421;28;20043;-61
2022/04/12 00:33:01;;;;;;;20.40;11.97;;;;;;;;;;5088184;28;20036;-61
2022/04/12 00:35:27;;;;;;;16.85;12.15;;;;;;;;;;5095084;28;20044;-61
2022/04/12 00:37:53;;;;;;;17.23;11.23;;;;;;;;;;5095329;28;20051;-61
2022/04/12 00:40:20;;;;;;;15.20;10.67;;;;;;;;;;5098653;28;20096;-61
2022/04/12 00:42:46;;;;;;;16.30;12.10;;;;;;;;;;5098474;28;20040;-61
2022/04/12 00:45:13;;;;;;;15.70;12.00;;;;;;;;;;5096946;28;20043;-61
2022/04/12 00:47:39;;;;;;;19.80;13.50;;;;;;;;;;5097160;28;20502;-61
2022/04/12 00:50:06;;;;;;;16.90;12.33;;;;;;;;;;5097640;28;20140;-60
2022/04/12 00:52:37;;;;;;;18.50;11.87;;;;;;;;;;5095601;28;20429;-60
2022/04/12 00:55:05;;;;;;;16.83;12.10;;;;;;;;;;5095723;28;20510;-61
2022/04/12 00:57:31;;;;;;;19.60;13.07;;;;;;;;;;5095687;28;20046;-61
2022/04/12 00:59:59;;;;;;;19.17;11.80;;;;;;;;;;5096919;28;20506;-61
2022/04/12 01:02:25;;;;;;;18.70;12.37;;;;;;;;;;5097597;28;20120;-60
2022/04/12 01:04:51;;;;;;;19.27;12.27;;;;;;;;;;5096030;28;20067;-60
2022/04/12 01:07:18;;;;;;;18.23;11.73;;;;;;;;;;5095853;28;20465;-60
2022/04/12 01:09:44;;;;;;;16.83;11.73;;;;;;;;;;5096897;28;20588;-61
2022/04/12 01:12:10;;;;;;;17.67;12.80;;;;;;;;;;5097667;28;20036;-61
2022/04/12 01:14:38;;;;;;;18.33;11.73;;;;;;;;;;5097016;28;20135;-61
2022/04/12 01:17:07;;;;;;;16.50;10.70;;;;;;;;;;5096458;28;20055;-61
2022/04/12 01:19:34;;;;;;;14.90;11.17;;;;;;;;;;5097579;28;20043;-61
2022/04/12 01:22:06;;;;;;;18.13;11.67;;;;;;;;;;5096535;28;20079;-61
2022/04/12 01:24:33;;;;;;;17.37;11.37;;;;;;;;;;5092239;28;20048;-61
2022/04/12 01:26:59;;;;;;;15.70;11.30;;;;;;;;;;5096967;28;20035;-61
2022/04/12 01:29:26;;;;;;;19.13;12.13;;;;;;;;;;5097102;28;20040;-61
2022/04/12 01:31:52;;;;;;;17.27;12.20;;;;;;;;;;5097973;28;20047;-61
2022/04/12 01:34:18;;;;;;;15.70;11.60;;;;;;;;;;5107358;28;20044;-61
2022/04/12 01:36:44;;;;;;;15.33;11.97;;;;;;;;;;5062485;28;1055793;-61
2022/04/12 01:39:10;;;;;;;17.03;11.33;;;;;;;;;;5099691;28;20040;-61
2022/04/12 01:41:36;;;;;;;16.07;11.73;;;;;;;;;;5089906;28;20498;-61
2022/04/12 01:44:02;;;;;;;14.13;10.60;;;;;;;;;;5088384;28;20087;-61
2022/04/12 01:46:28;;;;;;;16.57;11.70;;;;;;;;;;5088301;28;20060;-62
2022/04/12 01:48:54;;;;;;;17.30;10.43;;;;;;;;;;5088682;28;20130;-61
2022/04/12 01:51:20;;;;;;;14.87;11.33;;;;;;;;;;5088479;28;20040;-61
2022/04/12 01:53:46;;;;;;;18.37;11.80;;;;;;;;;;5093310;28;20036;-61
2022/04/12 01:56:12;;;;;;;18.57;11.50;;;;;;;;;;5101110;28;20071;-61
2022/04/12 01:58:38;;;;;;;15.27;12.23;;;;;;;;;;5088593;28;20112;-61
2022/04/12 02:01:04;;;;;;;17.03;10.83;;;;;;;;;;5088135;28;20044;-61
2022/04/12 02:03:31;;;;;;;19.57;11.90;;;;;;;;;;5088328;28;20778;-61
2022/04/12 02:05:57;;;;;;;15.90;10.93;;;;;;;;;;5093296;28;20376;-61
2022/04/12 02:08:23;;;;;;;16.27;11.73;;;;;;;;;;5108273;28;20075;-61
2022/04/12 02:10:49;;;;;;;16.97;10.67;;;;;;;;;;5107831;28;20134;-61
2022/04/12 02:13:16;;;;;;;18.27;10.67;;;;;;;;;;5101093;28;20490;-61
2022/04/12 02:15:42;;;;;;;19.43;11.67;;;;;;;;;;5103345;28;20047;-61
2022/04/12 02:18:08;;;;;;;15.50;10.17;;;;;;;;;;5107978;28;20042;-61
2022/04/12 02:20:34;;;;;;;17.50;10.80;;;;;;;;;;5107633;28;20082;-61
2022/04/12 02:23:00;;;;;;;16.63;11.23;;;;;;;;;;5099810;28;20093;-61
2022/04/12 02:25:26;;;;;;;15.33;11.00;;;;;;;;;;5106498;28;20434;-61
2022/04/12 02:27:52;;;;;;;17.73;11.27;;;;;;;;;;5105467;28;20484;-61
2022/04/12 02:30:18;;;;;;;15.67;10.60;;;;;;;;;;5091447;28;20101;-61
2022/04/12 02:32:44;;;;;;;14.53;10.30;;;;;;;;;;5106671;28;20084;-61
2022/04/12 02:35:10;;;;;;;16.03;11.43;;;;;;;;;;5097198;28;20189;-61
2022/04/12 02:37:36;;;;;;;14.20;10.67;;;;;;;;;;5091262;28;20059;-61
2022/04/12 02:40:03;;;;;;;16.10;11.33;;;;;;;;;;5091552;28;20036;-61
2022/04/12 02:42:29;;;;;;;17.13;11.27;;;;;;;;;;5097698;28;20036;-61
2022/04/12 02:44:55;;;;;;;15.83;11.23;;;;;;;;;;5101395;28;20051;-61
2022/04/12 02:47:25;;;;;;;18.70;10.87;;;;;;;;;;5097963;28;20040;-61
2022/04/12 02:49:51;;;;;;;13.60;10.33;;;;;;;;;;5091519;28;20052;-61
2022/04/12 02:52:17;;;;;;;14.93;10.77;;;;;;;;;;5091308;28;20040;-61
2022/04/12 02:54:43;;;;;;;18.07;10.30;;;;;;;;;;5091254;28;20047;-61
2022/04/12 02:57:09;;;;;;;18.90;11.67;;;;;;;;;;5102436;28;20059;-61
2022/04/12 02:59:35;;;;;;;18.27;11.10;;;;;;;;;;5094416;28;20068;-61
2022/04/12 03:02:01;;;;;;;15.00;11.07;;;;;;;;;;5092027;28;20043;-61
2022/04/12 03:04:27;;;;;;;15.37;10.93;;;;;;;;;;5106657;28;20044;-63
2022/04/12 03:06:53;;;;;;;18.20;11.50;;;;;;;;;;5107764;28;20044;-61
2022/04/12 03:09:20;;;;;;;17.33;11.33;;;;;;;;;;5107797;28;20047;-61
2022/04/12 03:11:46;;;;;;;17.67;10.90;;;;;;;;;;5090833;28;20047;-61
2022/04/12 03:14:12;;;;;;;18.17;11.23;;;;;;;;;;5105833;28;20518;-61
2022/04/12 03:16:38;;;;;;;18.83;11.53;;;;;;;;;;5098677;28;20032;-61
2022/04/12 03:19:04;;;;;;;16.00;12.20;;;;;;;;;;5107467;28;20051;-61
2022/04/12 03:21:30;;;;;;;16.33;11.83;;;;;;;;;;5094789;28;20039;-61
2022/04/12 03:23:56;;;;;;;17.87;12.17;;;;;;;;;;5095120;28;20047;-61
2022/04/12 03:26:22;;;;;;;17.77;11.27;;;;;;;;;;5099585;28;20987;-61
2022/04/12 03:28:48;;;;;;;16.97;12.40;;;;;;;;;;5096875;28;20065;-62
2022/04/12 03:31:14;;;;;;;15.93;11.27;;;;;;;;;;5109219;28;20150;-61
2022/04/12 03:33:40;;;;;;;14.17;11.20;;;;;;;;;;5103613;28;20065;-62
2022/04/12 03:36:06;;;;;;;16.10;11.50;;;;;;;;;;5101952;28;20421;-62
2022/04/12 03:38:34;;;;;;;17.20;11.40;;;;;;;;;;5090093;28;20048;-61
2022/04/12 03:41:03;;;;;;;16.17;11.17;;;;;;;;;;5098778;28;20047;-62
2022/04/12 03:43:29;;;;;;;18.43;11.43;;;;;;;;;;5099631;28;20073;-61
2022/04/12 03:45:55;;;;;;;16.87;10.97;;;;;;;;;;5089708;28;20056;-61
2022/04/12 03:48:21;;;;;;;16.37;11.00;;;;;;;;;;5088983;28;20074;-61
2022/04/12 03:50:47;;;;;;;21.43;11.97;;;;;;;;;;5089979;28;20074;-61
2022/04/12 03:53:13;;;;;;;15.60;10.10;;;;;;;;;;5106162;28;20050;-61
2022/04/12 03:55:40;;;;;;;15.00;9.97;;;;;;;;;;5090280;28;20040;-61
2022/04/12 03:58:07;;;;;;;15.67;10.13;;;;;;;;;;5089838;28;20055;-61
2022/04/12 04:00:34;;;;;;;17.57;10.77;;;;;;;;;;5093179;28;20074;-61
2022/04/12 04:03:00;;;;;;;15.33;11.63;;;;;;;;;;5094982;28;20509;-61
2022/04/12 04:05:26;;;;;;;13.97;10.23;;;;;;;;;;5090193;28;20044;-61
2022/04/12 04:07:53;;;;;;;15.23;11.10;;;;;;;;;;5090098;28;20082;-60
2022/04/12 04:10:19;;;;;;;16.50;11.40;;;;;;;;;;5096916;28;20665;-60
2022/04/12 04:12:46;;;;;;;18.80;10.73;;;;;;;;;;5104808;28;20119;-61
2022/04/12 04:15:12;;;;;;;16.23;10.30;;;;;;;;;;5089456;28;20465;-61
2022/04/12 04:17:40;;;;;;;18.07;10.63;;;;;;;;;;5089268;28;20159;-60
2022/04/12 04:20:06;;;;;;;22.37;11.97;;;;;;;;;;5104871;28;20112;-61
2022/04/12 04:22:33;;;;;;;15.80;10.53;;;;;;;;;;5092858;28;20079;-60
2022/04/12 04:24:59;;;;;;;15.37;11.03;;;;;;;;;;5096505;28;20597;-61
2022/04/12 04:27:28;;;;;;;16.90;11.00;;;;;;;;;;5105641;28;20130;-60
2022/04/12 04:29:55;;;;;;;15.87;10.70;;;;;;;;;;5089517;28;20124;-60
2022/04/12 04:32:22;;;;;;;18.00;10.70;;;;;;;;;;5089012;28;20044;-61
2022/04/12 04:34:48;;;;;;;15.07;10.27;;;;;;;;;;5097568;28;20054;-60
2022/04/12 04:37:14;;;;;;;17.77;11.63;;;;;;;;;;5089278;28;20056;-61
2022/04/12 04:39:40;;;;;;;18.00;10.97;;;;;;;;;;5089356;28;20069;-60
2022/04/12 04:42:06;;;;;;;17.17;11.13;;;;;;;;;;5089596;28;20040;-60
2022/04/12 04:44:35;;;;;;;16.73;11.33;;;;;;;;;;5092607;28;20063;-60
2022/04/12 04:47:00;;;;;;;17.50;11.30;;;;;;;;;;5098290;28;20458;-61
2022/04/12 04:49:27;;;;;;;14.43;10.13;;;;;;;;;;5093985;28;20079;-61
2022/04/12 04:51:53;;;;;;;18.20;11.03;;;;;;;;;;5099549;28;20044;-60
2022/04/12 04:54:19;;;;;;;15.53;10.50;;;;;;;;;;5108588;28;20410;-60
2022/04/12 04:56:45;;;;;;;13.90;10.03;;;;;;;;;;5099502;28;20069;-61
2022/04/12 04:59:12;;;;;;;14.60;10.50;;;;;;;;;;5089571;28;20841;-60
2022/04/12 05:01:38;;;;;;;15.97;10.73;;;;;;;;;;5098829;28;20131;-60
2022/04/12 05:04:04;;;;;;;16.27;11.93;;;;;;;;;;5101814;28;20060;-61
2022/04/12 05:06:30;;;;;;;17.13;10.07;;;;;;;;;;5106974;28;20139;-60
2022/04/12 05:08:56;;;;;;;13.40;10.00;;;;;;;;;;5108278;28;20130;-61
2022/04/12 05:11:22;;;;;;;16.97;10.77;;;;;;;;;;5104084;28;20083;-60
2022/04/12 05:13:48;;;;;;;15.17;10.73;;;;;;;;;;5097413;28;20042;-60
2022/04/12 05:16:14;;;;;;;13.70;9.20;;;;;;;;;;5088299;28;20422;-61
2022/04/12 05:18:40;;;;;;;15.50;10.93;;;;;;;;;;5088542;28;20032;-61
2022/04/12 05:21:06;;;;;;;14.07;10.40;;;;;;;;;;5089582;28;20076;-61
2022/04/12 05:23:32;;;;;;;16.33;10.87;;;;;;;;;;5091430;28;20517;-61
2022/04/12 05:25:58;;;;;;;16.33;11.03;;;;;;;;;;5099847;28;20051;-61
2022/04/12 05:28:24;;;;;;;14.20;11.33;;;;;;;;;;5098445;28;20086;-61
2022/04/12 05:30:50;;;;;;;15.27;9.80;;;;;;;;;;5092335;28;20074;-60
2022/04/12 05:33:16;;;;;;;17.23;9.87;;;;;;;;;;5090825;28;20543;-61
2022/04/12 05:35:42;;;;;;;13.90;9.93;;;;;;;;;;5092892;28;20090;-61
2022/04/12 05:38:08;;;;;;;17.20;9.63;;;;;;;;;;5089481;28;20433;-61
2022/04/12 05:40:34;;;;;;;16.23;10.37;;;;;;;;;;5099267;28;20532;-61
2022/04/12 05:43:00;;;;;;;16.97;8.93;;;;;;;;;;5095430;28;20039;-61
2022/04/12 05:45:26;;;;;;;13.77;9.00;;;;;;;;;;5103931;28;20406;-61
2022/04/12 05:47:53;;;;;;;17.30;9.50;;;;;;;;;;5087902;28;20402;-61
2022/04/12 05:50:23;;;;;;;17.43;8.80;;;;;;;;;;5087847;28;20036;-61
2022/04/12 05:52:49;;;;;;;13.87;9.10;;;;;;;;;;5093387;28;20039;-61
2022/04/12 05:55:17;;;;;;;18.80;10.90;;;;;;;;;;5088022;28;20046;-60
2022/04/12 05:58:03;;;;;;;11.87;8.90;;;;;;;;;;5088506;28;20052;-61
2022/04/12 06:00:33;;;;;;;12.67;8.50;;;;;;;;;;5087999;28;20126;-60
2022/04/12 06:02:59;;;;;;;10.33;7.80;;;;;;;;;;5094781;28;20040;-61
2022/04/12 06:05:28;;;;;;;11.03;8.10;;;;;;;;;;5088772;28;20052;-61
2022/04/12 06:07:54;;;;;;;11.00;8.20;;;;;;;;;;5096995;28;20127;-60
2022/04/12 06:10:21;;;;;;;12.30;8.13;;;;;;;;;;5107347;28;20047;-61
2022/04/12 06:12:47;;;;;;;10.33;7.20;;;;;;;;;;5111675;28;20493;-62
2022/04/12 06:15:13;;;;;;;12.43;7.97;;;;;;;;;;5103009;28;20048;-61
2022/04/12 06:17:39;;;;;;;14.13;9.10;;;;;;;;;;5103736;28;20101;-60
2022/04/12 06:20:10;;;;;;;10.07;7.37;;;;;;;;;;5095415;28;20523;-61
2022/04/12 06:22:36;;;;;;;11.73;8.13;;;;;;;;;;5090684;28;20035;-61
2022/04/12 06:25:03;;;;;;;12.47;7.27;;;;;;;;;;5097699;28;20093;-61
2022/04/12 06:27:32;;;;;;;13.10;8.27;;;;;;;;;;5098222;28;20047;-60
2022/04/12 06:29:58;;;;;;;13.50;8.40;;;;;;;;;;5099050;28;20478;-61
2022/04/12 06:32:26;;;;;;;11.47;7.43;;;;;;;;;;5098059;28;20556;-61
2022/04/12 06:34:52;;;;;;;11.23;7.90;;;;;;;;;;5101891;28;20506;-60
2022/04/12 06:37:18;;;;;;;13.67;7.47;;;;;;;;;;5107692;28;20062;-61
2022/04/12 06:39:44;;;;;;;13.30;7.87;;;;;;;;;;5105486;28;20044;-61
2022/04/12 06:42:12;;;;;;;11.17;7.83;;;;;;;;;;5092235;28;20883;-60
2022/04/12 06:44:41;;;;;;;11.83;7.10;;;;;;;;;;5099271;28;20051;-60
2022/04/12 06:47:07;;;;;;;12.43;7.83;;;;;;;;;;5101658;28;20054;-61
2022/04/12 06:49:33;;;;;;;14.40;8.60;;;;;;;;;;5101126;28;20043;-61
2022/04/12 06:51:59;;;;;;;11.27;7.37;;;;;;;;;;5109203;28;20130;-61
2022/04/12 06:54:26;;;;;;;10.70;7.70;;;;;;;;;;5107983;28;20047;-61
2022/04/12 06:56:52;;;;;;;13.17;7.53;;;;;;;;;;5092352;28;20043;-61
2022/04/12 06:59:18;;;;;;;15.43;8.30;;;;;;;;;;5101198;28;20540;-60
2022/04/12 07:01:44;;;;;;;13.30;7.10;;;;;;;;;;5092944;28;20510;-61
2022/04/12 07:04:10;;;;;;;13.00;7.97;;;;;;;;;;5091335;28;20036;-61
2022/04/12 07:06:36;;;;;;;10.40;7.13;;;;;;;;;;5102141;28;20046;-60
2022/04/12 07:09:05;;;;;;;13.47;8.30;;;;;;;;;;5093356;28;20197;-60
2022/04/12 07:11:31;;;;;;;12.40;8.00;;;;;;;;;;5100126;28;20071;-60
2022/04/12 07:13:57;;;;;;;11.50;7.80;;;;;;;;;;5100496;28;20178;-60
2022/04/12 07:16:23;;;;;;;11.00;7.47;;;;;;;;;;5096870;28;20058;-61
2022/04/12 07:18:49;;;;;;;11.63;7.93;;;;;;;;;;5096313;28;20054;-61
2022/04/12 07:21:21;;;;;;;12.53;7.37;;;;;;;;;;5096274;28;20051;-61
2022/04/12 07:23:49;;;;;;;12.00;7.63;;;;;;;;;;5091124;28;20048;-61
2022/04/12 07:26:15;;;;;;;14.83;7.93;;;;;;;;;;5091545;28;20047;-61
2022/04/12 07:28:41;;;;;;;11.07;7.40;;;;;;;;;;5101013;28;20046;-61
2022/04/12 07:31:07;;;;;;;12.60;8.60;;;;;;;;;;5094656;28;20493;-60
2022/04/12 07:33:33;;;;;;;11.87;8.20;;;;;;;;;;5098137;28;20140;-61
2022/04/12 07:35:59;;;;;;;11.10;7.60;;;;;;;;;;5091442;28;20048;-60
2022/04/12 07:38:25;;;;;;;11.87;7.43;;;;;;;;;;5096118;28;20066;-61
2022/04/12 07:40:53;;;;;;;13.00;7.30;;;;;;;;;;5101750;28;20050;-61
2022/04/12 07:43:20;;;;;;;12.10;7.33;;;;;;;;;;5093335;28;20501;-60
2022/04/12 07:45:46;;;;;;;12.90;7.77;;;;;;;;;;5096303;28;20056;-60
2022/04/12 07:48:13;;;;;;;11.53;7.73;;;;;;;;;;5098608;28;20043;-61
2022/04/12 07:50:39;;;;;;;11.37;7.47;;;;;;;;;;5091302;28;20882;-61
2022/04/12 07:53:06;;;;;;;12.43;7.23;;;;;;;;;;5099809;28;20036;-61
2022/04/12 07:55:32;;;;;;;15.37;8.33;;;;;;;;;;5097282;28;20468;-60
2022/04/12 07:57:58;;;;;;;14.57;7.90;;;;;;;;;;5099680;28;20090;-61
2022/04/12 08:00:24;;;;;;;10.50;6.90;;;;;;;;;;5097434;28;20051;-61
2022/04/12 08:02:50;;;;;;;10.73;7.23;;;;;;;;;;5092530;28;20051;-61
2022/04/12 08:05:17;;;;;;;12.43;7.37;;;;;;;;;;5090720;28;20061;-61
2022/04/12 08:07:47;;;;;;;12.30;8.00;;;;;;;;;;5097527;28;20051;-60
2022/04/12 08:10:17;;;;;;;10.57;6.80;;;;;;;;;;5097382;28;20109;-61
2022/04/12 08:12:44;;;;;;;10.67;6.23;;;;;;;;;;5100335;28;20040;-60
2022/04/12 08:15:11;;;;;;;9.20;6.53;;;;;;;;;;5098333;28;20508;-60
2022/04/12 08:17:37;;;;;;;9.70;6.43;;;;;;;;;;5091414;28;20039;-60
2022/04/12 08:20:03;;;;;;;10.20;7.00;;;;;;;;;;5104020;28;20075;-61
2022/04/12 08:22:29;;;;;;;10.53;6.73;;;;;;;;;;5094819;28;20123;-61
2022/04/12 08:24:55;;;;;;;9.67;6.83;;;;;;;;;;5096687;28;20585;-60
2022/04/12 08:27:21;;;;;;;8.77;6.40;;;;;;;;;;5107029;28;20048;-60
2022/04/12 08:29:47;;;;;;;12.30;6.67;;;;;;;;;;5102832;28;20409;-61
2022/04/12 08:32:14;;;;;;;9.77;6.27;;;;;;;;;;5092116;28;20089;-61
2022/04/12 08:34:40;;;;;;;9.47;6.27;;;;;;;;;;5100726;28;20036;-60
2022/04/12 08:37:06;;;;;;;9.77;6.43;;;;;;;;;;5095841;28;20382;-61
2022/04/12 08:39:32;;;;;;;10.20;6.03;;;;;;;;;;5095287;28;20070;-61
2022/04/12 08:41:59;;;;;;;11.83;6.57;;;;;;;;;;5099876;28;20073;-61
2022/04/12 08:44:25;;;;;;;8.70;6.43;;;;;;;;;;5097017;28;20150;-61
2022/04/12 08:46:51;;;;;;;10.20;6.73;;;;;;;;;;5098476;28;20055;-61
2022/04/12 08:49:18;;;;;;;10.17;5.67;;;;;;;;;;5098952;28;20047;-61
2022/04/12 08:51:46;;;;;;;8.57;6.03;;;;;;;;;;5095003;28;20443;-61
2022/04/12 08:54:12;;;;;;;9.47;6.37;;;;;;;;;;5099154;28;20067;-61
2022/04/12 08:56:40;;;;;;;9.43;6.27;;;;;;;;;;5089873;28;20051;-61
2022/04/12 08:59:06;;;;;;;8.30;6.23;;;;;;;;;;5101124;28;20089;-61
2022/04/12 09:01:32;;;;;;;8.77;6.57;;;;;;;;;;5100548;28;20428;-61
2022/04/12 09:03:58;;;;;;;9.90;6.30;;;;;;;;;;5079709;28;20058;-61
2022/04/12 09:06:24;;;;;;;8.40;6.03;;;;;;;;;;5090358;28;20448;-61
2022/04/12 09:08:50;;;;;;;8.00;5.50;;;;;;;;;;5094153;28;20048;-61
2022/04/12 09:11:17;;;;;;;8.63;5.63;;;;;;;;;;5097140;28;20043;-61
2022/04/12 09:13:57;;;;;;;9.23;6.33;;;;;;;;;;5097036;28;20054;-61
2022/04/12 09:16:23;;;;;;;8.27;5.77;;;;;;;;;;5088416;28;20101;-61
2022/04/12 09:18:49;;;;;;;10.10;5.90;;;;;;;;;;5088828;28;20115;-61
2022/04/12 09:21:16;;;;;;;10.73;6.27;;;;;;;;;;5096307;28;20082;-61
2022/04/12 09:23:47;;;;;;;9.53;6.67;;;;;;;;;;5096550;28;20085;-61
2022/04/12 09:26:33;;;;;;;10.07;6.03;;;;;;;;;;5100235;28;20042;-61
2022/04/12 09:29:00;;;;;;;9.83;6.10;;;;;;;;;;5088483;28;20055;-61
2022/04/12 09:31:26;;;;;;;11.67;6.50;;;;;;;;;;5088381;28;20044;-61
2022/04/12 09:33:53;;;;;;;11.20;5.63;;;;;;;;;;5087758;28;20052;-61
2022/04/12 09:36:20;;;;;;;7.47;5.83;;;;;;;;;;5088994;28;20139;-61
2022/04/12 09:38:47;;;;;;;9.23;5.87;;;;;;;;;;5088770;28;20584;-60
2022/04/12 09:41:24;;;;;;;9.80;5.63;;;;;;;;;;5069827;28;20036;-61
2022/04/12 09:43:51;;;;;;;7.57;5.17;;;;;;;;;;5090443;28;20419;-61
2022/04/12 09:46:18;;;;;;;7.13;5.63;;;;;;;;;;5104642;28;20058;-61
2022/04/12 09:48:47;;;;;;;9.00;5.57;;;;;;;;;;5082341;28;20410;-61
2022/04/12 09:51:13;;;;;;;9.03;5.80;;;;;;;;;;5093248;28;20047;-60
2022/04/12 09:53:40;;;;;;;8.77;5.17;;;;;;;;;;5108551;28;20390;-61
2022/04/12 09:56:18;;;;;;;8.67;5.67;;;;;;;;;;5101138;28;20050;-61
2022/04/12 09:58:46;;;;;;;8.57;6.27;;;;;;;;;;5098721;28;20044;-62
2022/04/12 10:01:13;;;;;;;7.20;5.80;;;;;;;;;;5111283;28;20057;-61
2022/04/12 10:03:39;;;;;;;9.13;5.80;;;;;;;;;;5109587;28;20502;-61
2022/04/12 10:06:06;;;;;;;11.07;6.33;;;;;;;;;;5105580;28;20054;-61
2022/04/12 10:08:34;;;;;;;10.03;6.23;;;;;;;;;;5092262;28;20498;-60
2022/04/12 10:11:00;;;;;;;7.63;5.63;;;;;;;;;;5091767;28;20044;-61
2022/04/12 10:13:27;;;;;;;7.30;5.20;;;;;;;;;;5102719;28;20452;-61
2022/04/12 10:15:53;;;;;;;9.00;6.03;;;;;;;;;;5101332;28;20054;-61
2022/04/12 10:18:23;;;;;;;10.07;6.50;;;;;;;;;;5099843;28;20123;-61
2022/04/12 10:20:49;;;;;;;7.40;5.67;;;;;;;;;;5099435;28;20040;-62
2022/04/12 10:23:20;;;;;;;9.93;6.00;;;;;;;;;;5091307;28;20036;-61
2022/04/12 10:25:48;;;;;;;8.57;5.93;;;;;;;;;;5099121;28;20044;-61
2022/04/12 10:28:15;;;;;;;11.70;7.10;;;;;;;;;;5110430;28;20673;-61
2022/04/12 10:30:41;;;;;;;9.57;6.33;;;;;;;;;;5111052;28;20039;-61
2022/04/12 10:33:08;;;;;;;9.93;6.13;;;;;;;;;;5110820;28;20054;-62
2022/04/12 10:35:43;;;;;;;9.23;6.90;;;;;;;;;;5110684;28;20462;-62
2022/04/12 10:38:10;;;;;;;10.10;6.50;;;;;;;;;;5101173;28;20516;-62
2022/04/12 10:40:36;;;;;;;9.37;6.40;;;;;;;;;;5104772;28;20543;-62
2022/04/12 10:43:05;;;;;;;9.23;6.50;;;;;;;;;;5111240;28;20047;-61
2022/04/12 10:45:32;;;;;;;9.13;6.50;;;;;;;;;;5110728;28;20040;-61
2022/04/12 10:47:59;;;;;;;9.20;7.07;;;;;;;;;;5111671;28;20050;-62
2022/04/12 10:50:26;;;;;;;10.23;7.33;;;;;;;;;;5112147;28;20052;-62
2022/04/12 10:52:52;;;;;;;10.60;6.60;;;;;;;;;;5087347;28;20048;-62
2022/04/12 10:55:28;;;;;;;8.97;7.10;;;;;;;;;;5090586;28;20452;-62
2022/04/12 10:57:54;;;;;;;7.77;6.70;;;;;;;;;;5090622;28;20132;-61
2022/04/12 11:00:21;;;;;;;12.37;7.03;;;;;;;;;;5091145;28;20126;-61
2022/04/12 11:02:54;;;;;;;9.00;6.73;;;;;;;;;;5091355;28;20150;-62
2022/04/12 11:05:39;;;;;;;9.63;7.00;;;;;;;;;;5089724;28;20044;-62
2022/04/12 11:08:28;;;;;;;9.40;6.30;;;;;;;;;;5089844;28;20051;-61
2022/04/12 11:10:55;;;;;;;10.43;6.60;;;;;;;;;;5090015;28;20513;-61
2022/04/12 11:13:22;;;;;;;12.20;6.37;;;;;;;;;;5090688;28;20520;-61
2022/04/12 11:15:54;;;;;;;11.37;6.83;;;;;;;;;;5090782;28;20528;-59
2022/04/12 11:18:20;;;;;;;10.05;6.72;;;;;;;;;;5090271;28;20033;-62
2022/04/12 11:21:01;;;;;;;11.27;7.40;;;;;;;;;;5090738;28;20044;-62
2022/04/12 11:23:44;;;;;;;11.10;7.53;;;;;;;;;;5091085;28;20051;-59
2022/04/12 11:26:33;;;;;;;9.32;6.75;;;;;;;;;;5090404;28;20051;-59
2022/04/12 11:29:00;;;;;;;13.80;8.03;;;;;;;;;;5077586;28;20506;-59
2022/04/12 11:31:26;;;;;;;10.70;7.88;;;;;;;;;;5090516;28;20044;-62
2022/04/12 11:33:52;;;;;;;12.20;6.73;;;;;;;;;;5095740;28;20051;-59
2022/04/12 11:36:18;;;;;;;10.27;8.00;;;;;;;;;;5110752;28;20072;-59
2022/04/12 11:38:44;;;;;;;10.18;7.25;;;;;;;;;;5109415;28;20398;-59
2022/04/12 11:41:10;;;;;;;12.65;7.22;;;;;;;;;;5110217;28;20097;-59
2022/04/12 11:43:36;;;;;;;10.27;7.50;;;;;;;;;;5102585;28;20168;-59
2022/04/12 11:46:02;;;;;;;12.23;7.65;;;;;;;;;;5078865;28;20048;-59
2022/04/12 11:48:30;;;;;;;11.02;7.50;;;;;;;;;;5089820;28;20047;-59
2022/04/12 11:50:56;;;;;;;9.60;6.18;;;;;;;;;;5089816;28;20044;-60
2022/04/12 11:53:23;;;;;;;9.48;6.05;;;;;;;;;;5099850;28;20046;-59
2022/04/12 11:55:49;;;;;;;11.23;6.22;;;;;;;;;;5100879;28;20544;-59
2022/04/12 11:58:20;;;;;;;9.30;5.75;;;;;;;;;;5098900;28;20054;-59
2022/04/12 12:00:46;;;;;;;10.10;6.45;;;;;;;;;;5101807;28;20096;-59
2022/04/12 12:03:16;;;;;;;8.95;6.82;;;;;;;;;;5092301;28;20052;-59
2022/04/12 12:05:42;;;;;;;9.85;6.05;;;;;;;;;;5090365;28;20091;-62
2022/04/12 12:08:10;;;;;;;9.95;6.40;;;;;;;;;;5095850;28;20131;-59
2022/04/12 12:10:36;;;;;;;11.75;5.78;;;;;;;;;;5100684;28;20110;-59
2022/04/12 12:13:05;;;;;;;10.52;6.63;;;;;;;;;;5108646;28;20634;-59
2022/04/12 12:15:33;;;;;;;9.73;6.97;;;;;;;;;;5109727;28;21050;-59
2022/04/12 12:18:00;;;;;;;10.57;6.10;;;;;;;;;;5109771;28;20572;-59
2022/04/12 12:20:27;;;;;;;10.07;6.85;;;;;;;;;;5110017;28;20043;-59
2022/04/12 12:22:55;;;;;;;11.27;6.43;;;;;;;;;;5101658;28;20048;-59
2022/04/12 12:25:35;;;;;;;9.20;7.72;;;;;;;;;;5089310;28;20055;-60
2022/04/12 12:28:01;;;;;;;8.68;6.40;;;;;;;;;;5089042;28;20040;-60
2022/04/12 12:30:32;;;;;;;12.18;7.22;;;;;;;;;;5089306;28;20044;-60
2022/04/12 12:32:58;;;;;;;9.80;6.63;;;;;;;;;;5089436;28;20169;-60
2022/04/12 12:35:25;;;;;;;9.65;7.55;;;;;;;;;;5089258;28;20446;-60
2022/04/12 12:37:58;;;;;;;9.55;6.82;;;;;;;;;;5088774;28;20054;-60
2022/04/12 12:40:25;;;;;;;10.93;7.50;;;;;;;;;;5089355;28;20126;-60
2022/04/12 12:42:51;;;;;;;13.65;7.38;;;;;;;;;;5089317;28;20105;-61
2022/04/12 12:45:26;;;;;;;9.75;7.18;;;;;;;;;;5089261;28;20063;-60
2022/04/12 12:47:53;;;;;;;9.68;7.47;;;;;;;;;;5089125;28;20087;-61
2022/04/12 12:50:20;;;;;;;8.27;6.72;;;;;;;;;;5089538;28;20110;-60
2022/04/12 12:52:47;;;;;;;8.90;7.47;;;;;;;;;;5100129;28;20050;-60
2022/04/12 12:55:18;;;;;;;10.30;7.63;;;;;;;;;;5094422;28;20067;-61
2022/04/12 12:57:51;;;;;;;10.77;7.68;;;;;;;;;;5089154;28;20059;-60
2022/04/12 13:00:18;;;;;;;12.93;7.57;;;;;;;;;;5089002;28;20047;-61
2022/04/12 13:02:44;;;;;;;14.30;7.72;;;;;;;;;;5089133;28;20491;-60
2022/04/12 13:05:11;;;;;;;13.82;6.93;;;;;;;;;;5088961;28;20078;-60
2022/04/12 13:07:38;;;;;;;11.30;7.50;;;;;;;;;;5088961;28;20054;-60
2022/04/12 13:10:12;;;;;;;11.18;7.25;;;;;;;;;;5088615;28;20421;-61
2022/04/12 13:12:38;;;;;;;11.00;7.55;;;;;;;;;;5088749;28;20094;-61
2022/04/12 13:15:05;;;;;;;11.02;7.53;;;;;;;;;;5070357;28;20074;-64
2022/04/12 13:17:31;;;;;;;10.32;6.97;;;;;;;;;;5088774;28;20102;-61
2022/04/12 13:19:57;;;;;;;11.20;7.43;;;;;;;;;;5088099;28;20085;-61
2022/04/12 13:22:27;;;;;;;12.75;7.72;;;;;;;;;;5088136;28;20040;-61
2022/04/12 13:24:53;;;;;;;10.50;7.32;;;;;;;;;;5088763;28;20054;-61
2022/04/12 13:27:19;;;;;;;11.95;7.50;;;;;;;;;;5088368;28;20055;-61
2022/04/12 13:29:46;;;;;;;11.27;8.32;;;;;;;;;;5088533;28;20040;-61
2022/04/12 13:32:12;;;;;;;12.82;7.85;;;;;;;;;;5088120;28;20067;-61
2022/04/12 13:34:38;;;;;;;12.00;8.02;;;;;;;;;;5094191;28;20070;-61
2022/04/12 13:37:05;;;;;;;10.38;7.32;;;;;;;;;;5108308;28;20060;-61
2022/04/12 13:39:31;;;;;;;12.90;7.57;;;;;;;;;;5108641;28;20040;-61
2022/04/12 13:41:58;;;;;;;10.90;7.28;;;;;;;;;;5106179;28;20130;-61
2022/04/12 13:44:25;;;;;;;12.55;7.35;;;;;;;;;;5094392;28;20035;-62
2022/04/12 13:46:51;;;;;;;10.75;7.05;;;;;;;;;;5095502;28;20133;-61
2022/04/12 13:49:17;;;;;;;9.27;7.43;;;;;;;;;;5091887;28;20120;-61
2022/04/12 13:51:44;;;;;;;9.85;7.60;;;;;;;;;;5090469;28;20047;-61
2022/04/12 13:54:10;;;;;;;11.85;7.18;;;;;;;;;;5087546;28;20461;-61
2022/04/12 13:56:36;;;;;;;11.85;6.50;;;;;;;;;;5089027;28;20051;-61
2022/04/12 13:59:02;;;;;;;12.77;7.10;;;;;;;;;;5097999;28;20162;-61
2022/04/12 14:01:28;;;;;;;8.30;6.50;;;;;;;;;;5100005;28;20055;-61
2022/04/12 14:03:55;;;;;;;9.30;7.45;;;;;;;;;;5088733;28;20040;-61
2022/04/12 14:06:22;;;;;;;13.32;7.53;;;;;;;;;;5088019;28;20119;-61
2022/04/12 14:08:48;;;;;;;15.57;6.68;;;;;;;;;;5088109;28;20044;-61
2022/04/12 14:11:15;;;;;;;12.48;7.18;;;;;;;;;;5095763;28;20046;-61
2022/04/12 14:13:41;;;;;;;9.88;7.00;;;;;;;;;;5091189;28;20430;-61
2022/04/12 14:16:08;;;;;;;9.70;6.85;;;;;;;;;;5102301;28;20040;-61
2022/04/12 14:18:34;;;;;;;8.25;6.45;;;;;;;;;;5096766;28;20047;-61
2022/04/12 14:21:00;;;;;;;8.90;6.55;;;;;;;;;;5103580;28;20040;-61
2022/04/12 14:23:26;;;;;;;11.02;7.18;;;;;;;;;;5087213;28;20097;-61
2022/04/12 14:25:52;;;;;;;10.90;6.20;;;;;;;;;;5088416;28;20138;-61
2022/04/12 14:28:18;;;;;;;9.05;6.40;;;;;;;;;;5101228;28;20040;-61
2022/04/12 14:30:44;;;;;;;9.60;6.82;;;;;;;;;;5089829;28;20097;-61